createdAt,value
2019-05-06T00:01:53.994Z,61.79
2019-05-06T00:04:24.687Z,61.13
2019-05-06T00:06:54.770Z,60.96
2019-05-06T00:09:24.251Z,63.00
2019-05-06T00:11:57.110Z,62.29
2019-05-06T00:14:26.370Z,61.89
2019-05-06T00:16:58.522Z,63.23
2019-05-06T00:19:26.211Z,64.11
2019-05-06T00:21:55.326Z,63.58
2019-05-06T00:24:26.617Z,62.54
2019-05-06T00:27:04.685Z,61.97
2019-05-06T00:29:35.424Z,63.74
2019-05-06T00:32:04.603Z,64.70
2019-05-06T00:34:34.091Z,63.33
2019-05-06T00:37:03.928Z,61.42
2019-05-06T00:39:44.464Z,61.51
2019-05-06T00:42:36.316Z,64.42
2019-05-06T00:45:11.269Z,64.64
2019-05-06T00:47:44.396Z,63.88
2019-05-06T00:50:14.290Z,65.51
2019-05-06T00:52:50.558Z,65.12
2019-05-06T00:55:24.129Z,63.92
2019-05-06T00:57:54.437Z,63.95
2019-05-06T01:00:28.187Z,64.31
2019-05-06T01:03:00.032Z,63.68
2019-05-06T01:05:29.128Z,64.27
2019-05-06T01:08:07.888Z,63.63
2019-05-06T01:10:36.954Z,64.92
2019-05-06T01:13:19.133Z,63.88
2019-05-06T01:15:50.050Z,64.90
2019-05-06T01:18:19.097Z,64.95
2019-05-06T01:20:54.091Z,65.50
2019-05-06T01:23:24.733Z,65.49
2019-05-06T01:25:54.606Z,65.40
2019-05-06T01:28:24.543Z,65.28
2019-05-06T01:30:56.125Z,65.92
2019-05-06T01:33:26.263Z,66.16
2019-05-06T01:35:55.243Z,66.43
2019-05-06T01:38:33.812Z,66.03
2019-05-06T01:41:18.188Z,67.33
2019-05-06T01:43:50.440Z,66.85
2019-05-06T01:46:21.359Z,66.32
2019-05-06T01:48:56.429Z,65.74
2019-05-06T01:51:25.529Z,66.93
2019-05-06T01:53:54.690Z,66.12
2019-05-06T01:56:25.257Z,66.19
2019-05-06T01:58:58.786Z,65.64
2019-05-06T02:01:27.830Z,65.90
2019-05-06T02:03:56.871Z,65.01
2019-05-06T02:06:25.937Z,64.51
2019-05-06T02:08:58.325Z,64.69
2019-05-06T02:11:30.707Z,65.27
2019-05-06T02:14:04.752Z,65.52
2019-05-06T02:16:36.143Z,64.66
2019-05-06T02:19:05.216Z,66.15
2019-05-06T02:21:54.244Z,64.27
2019-05-06T02:24:30.882Z,64.87
2019-05-06T02:27:04.355Z,66.03
2019-05-06T02:29:36.028Z,65.54
2019-05-06T02:32:27.134Z,64.61
2019-05-06T02:35:05.343Z,66.73
2019-05-06T02:37:46.047Z,66.84
2019-05-06T02:40:24.936Z,66.38
2019-05-06T02:42:59.311Z,66.50
2019-05-06T02:45:33.216Z,66.93
2019-05-06T02:48:33.658Z,66.22
2019-05-06T02:51:13.629Z,67.86
2019-05-06T02:53:44.889Z,67.21
2019-05-06T02:56:14.158Z,67.40
2019-05-06T02:58:43.828Z,68.79
2019-05-06T03:01:16.113Z,68.37
2019-05-06T03:03:53.277Z,66.36
2019-05-06T03:06:24.312Z,66.41
2019-05-06T03:08:54.884Z,68.34
2019-05-06T03:11:24.212Z,68.99
2019-05-06T03:13:56.674Z,70.15
2019-05-06T03:16:25.729Z,68.70
2019-05-06T03:18:54.969Z,67.80
2019-05-06T03:21:44.783Z,68.69
2019-05-06T03:24:50.547Z,68.32
2019-05-06T03:27:24.111Z,70.09
2019-05-06T03:29:53.898Z,71.01
2019-05-06T03:32:30.307Z,72.25
2019-05-06T03:35:19.104Z,69.71
2019-05-06T03:37:33.431Z,70.72
2019-05-06T03:40:02.968Z,70.48
2019-05-06T03:42:33.465Z,72.09
2019-05-06T03:45:09.295Z,71.19
2019-05-06T03:47:45.872Z,70.26
2019-05-06T03:50:16.166Z,69.34
2019-05-06T03:52:45.268Z,69.75
2019-05-06T03:55:17.018Z,69.72
2019-05-06T03:57:53.684Z,70.22
2019-05-06T04:00:23.902Z,71.35
2019-05-06T04:03:09.210Z,70.48
2019-05-06T04:05:39.080Z,70.48
2019-05-06T04:08:08.157Z,69.49
2019-05-06T04:10:43.615Z,67.51
2019-05-06T04:13:13.472Z,68.59
2019-05-06T04:16:22.860Z,67.32
2019-05-06T04:18:58.416Z,66.32
2019-05-06T04:21:34.655Z,66.46
2019-05-06T04:24:29.748Z,67.28
2019-05-06T04:27:29.706Z,67.95
2019-05-06T04:29:58.774Z,67.33
2019-05-06T04:32:29.856Z,67.07
2019-05-06T04:35:04.352Z,67.33
2019-05-06T04:37:35.740Z,66.04
2019-05-06T04:40:08.572Z,67.49
2019-05-06T04:42:44.276Z,68.16
2019-05-06T04:45:17.795Z,67.66
2019-05-06T04:47:49.823Z,66.80
2019-05-06T04:50:19.001Z,66.56
2019-05-06T04:52:57.294Z,68.30
2019-05-06T04:55:26.095Z,68.61
2019-05-06T04:57:57.382Z,67.62
2019-05-06T05:00:27.577Z,67.47
2019-05-06T05:02:59.631Z,67.61
2019-05-06T05:05:33.156Z,65.77
2019-05-06T05:08:13.310Z,66.00
2019-05-06T05:10:58.030Z,65.50
2019-05-06T05:13:45.283Z,64.63
2019-05-06T05:16:22.194Z,66.96
2019-05-06T05:18:57.503Z,65.52
2019-05-06T05:21:35.798Z,66.09
2019-05-06T05:24:06.345Z,64.58
2019-05-06T05:26:43.352Z,67.07
2019-05-06T05:29:12.345Z,66.45
2019-05-06T05:31:44.042Z,64.89
2019-05-06T05:34:16.105Z,65.52
2019-05-06T05:36:45.223Z,62.62
2019-05-06T05:39:14.296Z,64.56
2019-05-06T05:41:43.690Z,66.39
2019-05-06T05:44:20.071Z,66.81
2019-05-06T05:47:03.422Z,68.18
2019-05-06T05:49:52.913Z,66.73
2019-05-06T05:52:22.334Z,67.69
2019-05-06T05:54:56.561Z,65.74
2019-05-06T05:57:25.713Z,66.11
2019-05-06T05:59:56.686Z,65.45
2019-05-06T06:02:26.056Z,64.84
2019-05-06T06:04:57.675Z,63.51
2019-05-06T06:07:28.971Z,63.70
2019-05-06T06:10:08.777Z,62.63
2019-05-06T06:12:42.814Z,62.10
2019-05-06T06:15:22.068Z,63.74
2019-05-06T06:18:29.762Z,65.36
2019-05-06T06:21:28.125Z,67.29
2019-05-06T06:23:59.627Z,67.40
2019-05-06T06:26:32.364Z,70.47
2019-05-06T06:29:03.264Z,69.03
2019-05-06T06:31:49.806Z,67.46
2019-05-06T06:34:32.958Z,69.76
2019-05-06T06:37:30.081Z,68.92
2019-05-06T06:40:02.423Z,68.46
2019-05-06T06:42:35.086Z,65.87
2019-05-06T06:45:12.363Z,67.25
2019-05-06T06:47:48.673Z,67.07
2019-05-06T06:50:19.353Z,66.52
2019-05-06T06:53:07.419Z,67.46
2019-05-06T06:55:42.665Z,66.47
2019-05-06T06:58:41.752Z,66.49
2019-05-06T07:01:33.287Z,66.24
2019-05-06T07:04:13.432Z,66.82
2019-05-06T07:06:53.008Z,67.48
2019-05-06T07:09:23.205Z,65.77
2019-05-06T07:11:52.687Z,64.45
2019-05-06T07:14:23.044Z,64.07
2019-05-06T07:16:57.302Z,64.78
2019-05-06T07:19:42.143Z,62.43
2019-05-06T07:22:12.716Z,65.18
2019-05-06T07:24:43.125Z,64.46
2019-05-06T07:27:28.372Z,65.91
2019-05-06T07:30:03.027Z,62.64
2019-05-06T07:32:32.574Z,64.37
2019-05-06T07:35:02.503Z,65.31
2019-05-06T07:37:36.963Z,65.17
2019-05-06T07:40:07.539Z,64.67
2019-05-06T07:42:44.966Z,64.72
2019-05-06T07:45:24.061Z,65.93
2019-05-06T07:48:12.775Z,64.79
2019-05-06T07:50:36.968Z,67.35
2019-05-06T07:53:09.999Z,66.71
2019-05-06T07:55:42.432Z,65.62
2019-05-06T07:58:13.832Z,67.16
2019-05-06T08:00:44.445Z,65.12
2019-05-06T08:03:16.080Z,65.62
2019-05-06T08:05:55.822Z,67.07
2019-05-06T08:08:19.159Z,65.54
2019-05-06T08:10:48.215Z,65.96
2019-05-06T08:13:17.397Z,65.35
2019-05-06T08:15:49.125Z,64.69
2019-05-06T08:18:18.334Z,62.88
2019-05-06T08:20:47.589Z,62.95
2019-05-06T08:23:26.551Z,63.78
2019-05-06T08:26:09.061Z,63.93
2019-05-06T08:28:41.043Z,64.03
2019-05-06T08:31:02.499Z,63.59
2019-05-06T08:33:32.806Z,63.98
2019-05-06T08:36:11.662Z,63.33
2019-05-06T08:38:53.187Z,62.20
2019-05-06T08:41:27.210Z,63.88
2019-05-06T08:43:58.102Z,62.71
2019-05-06T08:46:27.170Z,63.46
2019-05-06T08:48:56.420Z,62.70
2019-05-06T08:51:37.396Z,63.08
2019-05-06T08:54:15.567Z,63.21
2019-05-06T08:56:44.985Z,63.64
2019-05-06T08:59:18.379Z,63.48
2019-05-06T09:01:53.329Z,60.77
2019-05-06T09:04:22.980Z,60.90
2019-05-06T09:06:53.423Z,62.09
2019-05-06T09:09:22.922Z,62.66
2019-05-06T09:11:53.497Z,60.90
2019-05-06T09:14:23.432Z,60.32
2019-05-06T09:16:54.280Z,60.72
2019-05-06T09:19:25.766Z,60.52
2019-05-06T09:21:54.826Z,61.40
2019-05-06T09:24:27.054Z,62.89
2019-05-06T09:27:15.926Z,60.69
2019-05-06T09:29:52.315Z,62.20
2019-05-06T09:32:35.956Z,63.45
2019-05-06T09:35:03.370Z,64.19
2019-05-06T09:37:32.691Z,62.81
2019-05-06T09:40:03.025Z,62.39
2019-05-06T09:42:44.334Z,62.63
2019-05-06T09:45:16.510Z,63.24
2019-05-06T09:47:54.768Z,60.94
2019-05-06T09:50:38.441Z,59.35
2019-05-06T09:53:12.964Z,57.20
2019-05-06T09:56:04.629Z,53.89
2019-05-06T09:58:34.866Z,52.68
2019-05-06T10:01:04.787Z,52.04
2019-05-06T10:03:34.514Z,54.50
2019-05-06T10:06:05.939Z,57.38
2019-05-06T10:08:35.036Z,54.81
2019-05-06T10:11:04.116Z,50.01
2019-05-06T10:13:34.442Z,50.20
2019-05-06T10:16:05.374Z,51.05
2019-05-06T10:18:36.832Z,52.13
2019-05-06T10:21:06.594Z,49.84
2019-05-06T10:23:38.365Z,47.92
2019-05-06T10:26:07.422Z,47.41
2019-05-06T10:28:53.794Z,44.30
2019-05-06T10:31:25.682Z,48.25
2019-05-06T10:34:16.838Z,48.03
2019-05-06T10:37:12.594Z,47.84
2019-05-06T10:39:37.096Z,48.40
2019-05-06T10:42:13.482Z,48.35
2019-05-06T10:45:29.331Z,46.51
2019-05-06T10:48:02.575Z,47.94
2019-05-06T10:50:37.441Z,48.25
2019-05-06T10:53:24.428Z,49.79
2019-05-06T10:55:56.877Z,49.18
2019-05-06T10:58:28.173Z,47.33
2019-05-06T11:01:29.707Z,47.39
2019-05-06T11:04:03.629Z,43.67
2019-05-06T11:06:34.392Z,42.90
2019-05-06T11:09:05.164Z,45.41
2019-05-06T11:11:38.828Z,46.86
2019-05-06T11:14:12.820Z,44.63
2019-05-06T11:16:41.858Z,45.46
2019-05-06T11:19:13.355Z,42.61
2019-05-06T11:21:45.190Z,45.92
2019-05-06T11:24:14.622Z,50.07
2019-05-06T11:26:46.893Z,52.25
2019-05-06T11:29:21.728Z,53.62
2019-05-06T11:32:02.803Z,55.13
2019-05-06T11:34:55.807Z,52.80
2019-05-06T11:37:47.085Z,51.35
2019-05-06T11:40:08.727Z,49.40
2019-05-06T11:42:39.568Z,49.03
2019-05-06T11:45:13.360Z,48.35
2019-05-06T11:47:42.471Z,46.29
2019-05-06T11:50:13.004Z,45.69
2019-05-06T11:52:43.311Z,45.16
2019-05-06T11:55:31.654Z,44.94
2019-05-06T11:57:53.204Z,46.36
2019-05-06T12:00:35.960Z,47.94
2019-05-06T12:03:04.925Z,47.81
2019-05-06T12:05:35.146Z,47.72
2019-05-06T12:08:07.979Z,44.08
2019-05-06T12:10:37.091Z,43.84
2019-05-06T12:13:06.250Z,43.98
2019-05-06T12:15:36.143Z,40.42
2019-05-06T12:18:06.420Z,41.28
2019-05-06T12:20:37.351Z,42.58
2019-05-06T12:23:09.329Z,40.89
2019-05-06T12:25:38.523Z,40.18
2019-05-06T12:28:07.616Z,41.26
2019-05-06T12:30:37.972Z,40.87
2019-05-06T12:33:35.239Z,42.25
2019-05-06T12:36:16.728Z,42.75
2019-05-06T12:39:06.584Z,44.73
2019-05-06T12:41:37.763Z,45.66
2019-05-06T12:44:09.235Z,44.95
2019-05-06T12:46:49.415Z,43.55
2019-05-06T12:49:20.817Z,44.03
2019-05-06T12:51:55.004Z,43.22
2019-05-06T12:54:25.180Z,43.71
2019-05-06T12:56:55.987Z,43.60
2019-05-06T12:59:28.996Z,44.55
2019-05-06T13:02:03.975Z,44.89
2019-05-06T13:04:50.244Z,45.51
2019-05-06T13:07:07.829Z,43.88
2019-05-06T13:09:37.409Z,45.77
2019-05-06T13:12:12.491Z,44.66
2019-05-06T13:14:43.126Z,45.03
2019-05-06T13:17:16.970Z,45.44
2019-05-06T13:19:46.473Z,44.45
2019-05-06T13:22:33.985Z,42.16
2019-05-06T13:25:04.116Z,42.49
2019-05-06T13:27:44.581Z,44.44
2019-05-06T13:30:13.987Z,44.26
2019-05-06T13:32:48.462Z,41.80
2019-05-06T13:35:19.292Z,41.55
2019-05-06T13:37:52.814Z,41.58
2019-05-06T13:40:23.070Z,42.22
2019-05-06T13:43:13.530Z,40.00
2019-05-06T13:45:52.523Z,40.73
2019-05-06T13:48:36.197Z,39.42
2019-05-06T13:51:12.986Z,40.68
2019-05-06T13:53:46.037Z,38.88
2019-05-06T13:56:16.863Z,40.08
2019-05-06T13:58:48.016Z,41.51
2019-05-06T14:01:19.857Z,42.99
2019-05-06T14:03:49.151Z,40.22
2019-05-06T14:06:22.193Z,40.91
2019-05-06T14:08:55.112Z,40.21
2019-05-06T14:11:24.454Z,41.83
2019-05-06T14:13:53.637Z,41.22
2019-05-06T14:16:24.720Z,42.53
2019-05-06T14:18:54.225Z,43.10
2019-05-06T14:21:23.798Z,44.01
2019-05-06T14:23:55.589Z,44.26
2019-05-06T14:26:44.833Z,42.74
2019-05-06T14:29:42.398Z,41.15
2019-05-06T14:32:14.574Z,41.11
2019-05-06T14:34:43.456Z,43.37
2019-05-06T14:37:14.115Z,42.40
2019-05-06T14:39:53.829Z,41.43
2019-05-06T14:42:24.889Z,40.38
2019-05-06T14:44:56.044Z,41.15
2019-05-06T14:47:33.816Z,41.15
2019-05-06T14:50:03.901Z,38.15
2019-05-06T14:52:33.575Z,38.21
2019-05-06T14:55:16.840Z,39.97
2019-05-06T14:58:04.563Z,39.42
2019-05-06T15:00:36.201Z,38.02
2019-05-06T15:03:05.401Z,38.07
2019-05-06T15:05:36.704Z,35.80
2019-05-06T15:08:05.864Z,37.12
2019-05-06T15:10:37.765Z,37.55
2019-05-06T15:13:12.503Z,35.82
2019-05-06T15:15:44.172Z,36.57
2019-05-06T15:18:13.449Z,36.74
2019-05-06T15:20:43.917Z,36.03
2019-05-06T15:23:14.270Z,35.93
2019-05-06T15:25:49.042Z,36.82
2019-05-06T15:28:19.894Z,38.47
2019-05-06T15:31:03.153Z,35.34
2019-05-06T15:33:39.400Z,36.93
2019-05-06T15:36:22.922Z,37.03
2019-05-06T15:38:59.352Z,38.53
2019-05-06T15:41:28.760Z,39.10
2019-05-06T15:44:00.272Z,38.63
2019-05-06T15:46:32.319Z,39.49
2019-05-06T15:49:06.314Z,38.92
2019-05-06T15:51:37.004Z,39.70
2019-05-06T15:54:09.240Z,40.06
2019-05-06T15:56:45.896Z,39.75
2019-05-06T15:59:19.027Z,40.53
2019-05-06T16:01:55.586Z,41.80
2019-05-06T16:04:32.551Z,42.63
2019-05-06T16:07:08.105Z,40.43
2019-05-06T16:09:42.697Z,41.64
2019-05-06T16:12:18.045Z,40.23
2019-05-06T16:14:53.087Z,41.64
2019-05-06T16:17:29.310Z,41.30
2019-05-06T16:20:02.743Z,41.67
2019-05-06T16:22:37.977Z,41.85
2019-05-06T16:25:13.907Z,42.06
2019-05-06T16:27:54.824Z,41.88
2019-05-06T16:30:27.724Z,40.29
2019-05-06T16:33:03.972Z,41.88
2019-05-06T16:35:33.413Z,41.53
2019-05-06T16:38:27.461Z,41.70
2019-05-06T16:41:10.500Z,41.33
2019-05-06T16:43:37.239Z,41.03
2019-05-06T16:46:12.659Z,41.17
2019-05-06T16:48:55.080Z,42.00
2019-05-06T16:51:28.638Z,41.24
2019-05-06T16:54:06.130Z,40.22
2019-05-06T16:56:57.054Z,41.11
2019-05-06T16:59:34.685Z,41.33
2019-05-06T17:02:17.027Z,41.47
2019-05-06T17:05:06.097Z,42.74
2019-05-06T17:07:45.016Z,40.90
2019-05-06T17:10:22.989Z,41.80
2019-05-06T17:12:59.771Z,42.71
2019-05-06T17:15:36.277Z,42.64
2019-05-06T17:18:06.589Z,41.69
2019-05-06T17:20:42.776Z,42.01
2019-05-06T17:23:14.593Z,40.93
2019-05-06T17:25:52.097Z,40.71
2019-05-06T17:28:33.709Z,41.23
2019-05-06T17:31:27.449Z,40.03
2019-05-06T17:33:57.475Z,42.45
2019-05-06T17:36:28.265Z,44.31
2019-05-06T17:38:59.254Z,43.39
2019-05-06T17:41:42.386Z,42.57
2019-05-06T17:44:03.718Z,42.13
2019-05-06T17:46:42.676Z,43.07
2019-05-06T17:49:20.748Z,42.57
2019-05-06T17:52:13.162Z,43.12
2019-05-06T17:54:44.558Z,43.57
2019-05-06T17:57:13.662Z,43.05
2019-05-06T17:59:42.842Z,43.55
2019-05-06T18:02:19.278Z,43.35
2019-05-06T18:04:48.068Z,43.15
2019-05-06T18:07:18.587Z,43.12
2019-05-06T18:09:52.395Z,42.49
2019-05-06T18:12:23.227Z,44.18
2019-05-06T18:14:55.936Z,43.87
2019-05-06T18:17:25.391Z,44.00
2019-05-06T18:19:56.701Z,44.13
2019-05-06T18:22:29.625Z,43.26
2019-05-06T18:25:03.204Z,43.59
2019-05-06T18:27:32.717Z,43.11
2019-05-06T18:30:13.471Z,43.46
2019-05-06T18:32:33.930Z,44.50
2019-05-06T18:35:03.041Z,44.21
2019-05-06T18:37:34.075Z,45.92
2019-05-06T18:40:05.155Z,45.21
2019-05-06T18:42:37.061Z,45.21
2019-05-06T18:45:06.983Z,44.62
2019-05-06T18:47:36.108Z,45.12
2019-05-06T18:50:05.941Z,45.45
2019-05-06T18:52:35.053Z,45.29
2019-05-06T18:55:04.192Z,45.68
2019-05-06T18:57:33.306Z,45.72
2019-05-06T19:00:04.155Z,45.90
2019-05-06T19:02:33.277Z,45.69
2019-05-06T19:05:13.103Z,45.11
2019-05-06T19:07:43.424Z,45.70
2019-05-06T19:10:22.508Z,46.34
2019-05-06T19:12:52.848Z,46.87
2019-05-06T19:15:23.862Z,45.89
2019-05-06T19:17:54.339Z,46.35
2019-05-06T19:20:27.786Z,45.94
2019-05-06T19:22:56.890Z,45.90
2019-05-06T19:25:26.676Z,44.93
2019-05-06T19:27:57.245Z,45.68
2019-05-06T19:30:31.871Z,44.99
2019-05-06T19:33:02.386Z,44.41
2019-05-06T19:35:39.954Z,43.89
2019-05-06T19:38:09.103Z,44.40
2019-05-06T19:40:38.200Z,44.67
2019-05-06T19:43:09.163Z,45.18
2019-05-06T19:45:38.269Z,45.44
2019-05-06T19:48:08.967Z,45.61
2019-05-06T19:50:42.484Z,47.21
2019-05-06T19:53:11.815Z,47.13
2019-05-06T19:55:46.798Z,47.86
2019-05-06T19:58:14.568Z,48.04
2019-05-06T20:00:43.665Z,48.43
2019-05-06T20:03:13.603Z,48.07
2019-05-06T20:06:10.450Z,48.33
2019-05-06T20:08:52.861Z,49.48
2019-05-06T20:11:33.155Z,48.66
2019-05-06T20:14:03.490Z,49.35
2019-05-06T20:16:33.345Z,49.70
2019-05-06T20:19:05.335Z,49.74
2019-05-06T20:21:36.179Z,49.43
2019-05-06T20:24:05.332Z,49.17
2019-05-06T20:26:34.435Z,49.28
2019-05-06T20:29:03.592Z,50.11
2019-05-06T20:31:33.933Z,50.60
2019-05-06T20:34:06.123Z,51.26
2019-05-06T20:36:37.597Z,50.97
2019-05-06T20:39:12.220Z,51.21
2019-05-06T20:41:42.492Z,51.33
2019-05-06T20:44:12.345Z,50.93
2019-05-06T20:46:42.918Z,51.42
2019-05-06T20:49:13.222Z,51.54
2019-05-06T20:51:42.552Z,51.09
2019-05-06T20:54:15.648Z,51.17
2019-05-06T20:56:44.812Z,52.15
2019-05-06T20:59:17.092Z,52.18
2019-05-06T21:01:46.228Z,53.17
2019-05-06T21:04:15.328Z,53.03
2019-05-06T21:06:45.502Z,53.24
2019-05-06T21:09:14.667Z,53.91
2019-05-06T21:11:44.929Z,55.15
2019-05-06T21:14:15.814Z,56.53
2019-05-06T21:16:48.375Z,57.21
2019-05-06T21:19:22.275Z,57.47
2019-05-06T21:21:57.196Z,58.40
2019-05-06T21:24:26.521Z,57.77
2019-05-06T21:26:55.693Z,57.76
2019-05-06T21:29:27.890Z,57.20
2019-05-06T21:31:56.992Z,58.34
2019-05-06T21:34:26.060Z,59.28
2019-05-06T21:36:55.174Z,59.07
2019-05-06T21:39:25.142Z,58.65
2019-05-06T21:41:54.239Z,58.27
2019-05-06T21:44:23.310Z,57.05
2019-05-06T21:46:54.036Z,56.39
2019-05-06T21:49:23.409Z,55.81
2019-05-06T21:51:52.530Z,54.81
2019-05-06T21:54:23.176Z,53.82
2019-05-06T21:56:58.309Z,52.54
2019-05-06T21:59:30.063Z,53.15
2019-05-06T22:01:59.117Z,52.94
2019-05-06T22:04:38.668Z,53.16
2019-05-06T22:07:12.108Z,54.48
2019-05-06T22:09:43.050Z,54.61
2019-05-06T22:12:13.927Z,54.71
2019-05-06T22:14:47.232Z,52.23
2019-05-06T22:17:16.307Z,50.76
2019-05-06T22:19:45.377Z,52.46
2019-05-06T22:22:15.415Z,53.59
2019-05-06T22:24:57.380Z,54.02
2019-05-06T22:27:28.565Z,55.29
2019-05-06T22:29:57.578Z,52.93
2019-05-06T22:32:28.024Z,52.90
2019-05-06T22:34:59.557Z,52.98
2019-05-06T22:37:29.035Z,54.13
2019-05-06T22:40:02.156Z,55.47
2019-05-06T22:42:32.387Z,56.15
2019-05-06T22:45:04.734Z,54.86
2019-05-06T22:47:33.763Z,55.80
2019-05-06T22:50:05.863Z,54.75
2019-05-06T22:52:35.240Z,55.12
2019-05-06T22:55:05.950Z,55.28
2019-05-06T22:57:35.129Z,56.65
2019-05-06T23:00:08.611Z,55.89
2019-05-06T23:02:46.096Z,56.65
2019-05-06T23:05:23.082Z,56.95
2019-05-06T23:07:53.277Z,57.91
2019-05-06T23:10:24.726Z,57.62
2019-05-06T23:12:53.373Z,58.32
2019-05-06T23:15:25.485Z,59.12
2019-05-06T23:17:54.950Z,58.11
2019-05-06T23:20:25.284Z,58.26
2019-05-06T23:22:56.678Z,58.24
2019-05-06T23:25:25.777Z,58.71
2019-05-06T23:27:54.818Z,58.81
2019-05-06T23:30:23.928Z,58.81
2019-05-06T23:32:53.140Z,59.35
2019-05-06T23:35:22.304Z,59.50
2019-05-06T23:38:27.198Z,59.12
2019-05-06T23:41:32.840Z,60.42
2019-05-06T23:44:45.727Z,60.09
2019-05-06T23:47:48.174Z,59.58
2019-05-06T23:50:53.977Z,59.80
2019-05-06T23:53:58.795Z,59.83
2019-05-06T23:56:43.494Z,61.13
2019-05-06T23:59:14.497Z,61.42
